sensor_id;sensor_type;location;lat;lon;timestamp;P1;durP1;ratioP1;P2;durP2;ratioP2
53273;SDS011;39163;52.696;6.758;2024-02-16T00:00:23;7.97;;;2.83;;
53273;SDS011;39163;52.696;6.758;2024-02-16T00:02:50;5.82;;;2.47;;
53273;SDS011;39163;52.696;6.758;2024-02-16T00:05:18;9.05;;;2.50;;
53273;SDS011;39163;52.696;6.758;2024-02-16T00:07:46;7.50;;;2.70;;
53273;SDS011;39163;52.696;6.758;2024-02-16T00:10:13;5.05;;;1.90;;
53273;SDS011;39163;52.696;6.758;2024-02-16T00:12:43;6.30;;;2.38;;
53273;SDS011;39163;52.696;6.758;2024-02-16T00:15:10;6.65;;;2.20;;
53273;SDS011;39163;52.696;6.758;2024-02-16T00:17:37;7.13;;;2.50;;
53273;SDS011;39163;52.696;6.758;2024-02-16T00:20:05;6.30;;;2.47;;
53273;SDS011;39163;52.696;6.758;2024-02-16T00:22:33;7.63;;;2.97;;
53273;SDS011;39163;52.696;6.758;2024-02-16T00:25:02;7.35;;;2.35;;
53273;SDS011;39163;52.696;6.758;2024-02-16T00:27:29;6.00;;;2.60;;
53273;SDS011;39163;52.696;6.758;2024-02-16T00:29:55;5.82;;;1.88;;
53273;SDS011;39163;52.696;6.758;2024-02-16T00:32:22;7.40;;;2.00;;
53273;SDS011;39163;52.696;6.758;2024-02-16T00:34:54;6.57;;;2.50;;
53273;SDS011;39163;52.696;6.758;2024-02-16T00:37:21;7.30;;;1.73;;
53273;SDS011;39163;52.696;6.758;2024-02-16T00:39:49;9.75;;;1.70;;
53273;SDS011;39163;52.696;6.758;2024-02-16T00:42:19;3.03;;;1.60;;
53273;SDS011;39163;52.696;6.758;2024-02-16T00:44:46;4.85;;;1.40;;
53273;SDS011;39163;52.696;6.758;2024-02-16T00:47:13;6.00;;;1.70;;
53273;SDS011;39163;52.696;6.758;2024-02-16T00:49:41;4.80;;;2.05;;
53273;SDS011;39163;52.696;6.758;2024-02-16T00:52:08;3.78;;;1.30;;
53273;SDS011;39163;52.696;6.758;2024-02-16T00:54:36;7.55;;;1.52;;
53273;SDS011;39163;52.696;6.758;2024-02-16T00:57:03;7.18;;;1.27;;
53273;SDS011;39163;52.696;6.758;2024-02-16T00:59:32;5.07;;;1.90;;
53273;SDS011;39163;52.696;6.758;2024-02-16T01:01:59;7.38;;;1.75;;
53273;SDS011;39163;52.696;6.758;2024-02-16T01:04:26;2.67;;;0.90;;
53273;SDS011;39163;52.696;6.758;2024-02-16T01:06:53;5.93;;;1.63;;
53273;SDS011;39163;52.696;6.758;2024-02-16T01:09:19;5.25;;;1.13;;
53273;SDS011;39163;52.696;6.758;2024-02-16T01:11:46;6.47;;;1.25;;
53273;SDS011;39163;52.696;6.758;2024-02-16T01:14:12;8.00;;;1.60;;
53273;SDS011;39163;52.696;6.758;2024-02-16T01:16:42;4.97;;;1.25;;
53273;SDS011;39163;52.696;6.758;2024-02-16T01:19:09;3.25;;;1.10;;
53273;SDS011;39163;52.696;6.758;2024-02-16T01:21:35;2.88;;;1.27;;
53273;SDS011;39163;52.696;6.758;2024-02-16T01:24:02;2.85;;;1.00;;
53273;SDS011;39163;52.696;6.758;2024-02-16T01:26:30;5.85;;;1.08;;
53273;SDS011;39163;52.696;6.758;2024-02-16T01:28:57;6.45;;;1.30;;
53273;SDS011;39163;52.696;6.758;2024-02-16T01:31:25;3.10;;;0.98;;
53273;SDS011;39163;52.696;6.758;2024-02-16T01:33:53;3.25;;;0.90;;
53273;SDS011;39163;52.696;6.758;2024-02-16T01:36:20;7.32;;;1.52;;
53273;SDS011;39163;52.696;6.758;2024-02-16T01:38:47;5.85;;;1.10;;
53273;SDS011;39163;52.696;6.758;2024-02-16T01:41:14;4.50;;;1.20;;
53273;SDS011;39163;52.696;6.758;2024-02-16T01:43:41;5.82;;;1.02;;
53273;SDS011;39163;52.696;6.758;2024-02-16T01:46:08;4.40;;;0.82;;
53273;SDS011;39163;52.696;6.758;2024-02-16T01:48:35;7.75;;;1.60;;
53273;SDS011;39163;52.696;6.758;2024-02-16T01:51:05;8.23;;;1.25;;
53273;SDS011;39163;52.696;6.758;2024-02-16T01:53:34;6.00;;;1.42;;
53273;SDS011;39163;52.696;6.758;2024-02-16T01:56:02;4.85;;;0.80;;
53273;SDS011;39163;52.696;6.758;2024-02-16T01:58:30;4.38;;;0.93;;
53273;SDS011;39163;52.696;6.758;2024-02-16T02:00:57;5.55;;;0.82;;
53273;SDS011;39163;52.696;6.758;2024-02-16T02:03:24;2.95;;;0.60;;
53273;SDS011;39163;52.696;6.758;2024-02-16T02:05:51;5.57;;;0.95;;
53273;SDS011;39163;52.696;6.758;2024-02-16T02:08:21;2.83;;;0.73;;
53273;SDS011;39163;52.696;6.758;2024-02-16T02:10:48;3.65;;;1.08;;
53273;SDS011;39163;52.696;6.758;2024-02-16T02:13:15;5.35;;;0.98;;
53273;SDS011;39163;52.696;6.758;2024-02-16T02:15:45;3.80;;;0.77;;
53273;SDS011;39163;52.696;6.758;2024-02-16T02:18:12;4.70;;;0.90;;
53273;SDS011;39163;52.696;6.758;2024-02-16T02:20:39;5.43;;;1.23;;
53273;SDS011;39163;52.696;6.758;2024-02-16T02:23:07;4.80;;;0.77;;
53273;SDS011;39163;52.696;6.758;2024-02-16T02:25:34;5.68;;;1.02;;
53273;SDS011;39163;52.696;6.758;2024-02-16T02:28:01;8.23;;;1.55;;
53273;SDS011;39163;52.696;6.758;2024-02-16T02:30:29;6.32;;;1.80;;
53273;SDS011;39163;52.696;6.758;2024-02-16T02:32:56;6.07;;;0.90;;
53273;SDS011;39163;52.696;6.758;2024-02-16T02:35:23;5.88;;;1.88;;
53273;SDS011;39163;52.696;6.758;2024-02-16T02:37:49;6.03;;;1.23;;
53273;SDS011;39163;52.696;6.758;2024-02-16T02:40:18;7.80;;;1.63;;
53273;SDS011;39163;52.696;6.758;2024-02-16T02:42:45;3.22;;;1.05;;
53273;SDS011;39163;52.696;6.758;2024-02-16T02:45:12;6.75;;;1.00;;
53273;SDS011;39163;52.696;6.758;2024-02-16T02:47:39;4.63;;;1.55;;
53273;SDS011;39163;52.696;6.758;2024-02-16T02:50:06;5.10;;;1.00;;
53273;SDS011;39163;52.696;6.758;2024-02-16T02:52:34;4.25;;;1.10;;
53273;SDS011;39163;52.696;6.758;2024-02-16T02:55:01;6.38;;;1.73;;
53273;SDS011;39163;52.696;6.758;2024-02-16T02:57:29;7.65;;;1.63;;
53273;SDS011;39163;52.696;6.758;2024-02-16T03:00:02;3.45;;;1.30;;
53273;SDS011;39163;52.696;6.758;2024-02-16T03:02:31;4.78;;;0.98;;
53273;SDS011;39163;52.696;6.758;2024-02-16T03:04:58;4.05;;;1.30;;
53273;SDS011;39163;52.696;6.758;2024-02-16T03:07:25;4.60;;;1.08;;
53273;SDS011;39163;52.696;6.758;2024-02-16T03:09:52;6.10;;;1.48;;
53273;SDS011;39163;52.696;6.758;2024-02-16T03:12:19;6.97;;;1.10;;
53273;SDS011;39163;52.696;6.758;2024-02-16T03:14:48;4.40;;;1.15;;
53273;SDS011;39163;52.696;6.758;2024-02-16T03:17:16;3.45;;;1.27;;
53273;SDS011;39163;52.696;6.758;2024-02-16T03:19:42;3.65;;;1.55;;
53273;SDS011;39163;52.696;6.758;2024-02-16T03:22:10;7.55;;;1.40;;
53273;SDS011;39163;52.696;6.758;2024-02-16T03:24:37;4.20;;;1.15;;
53273;SDS011;39163;52.696;6.758;2024-02-16T03:27:04;5.55;;;1.55;;
53273;SDS011;39163;52.696;6.758;2024-02-16T03:29:31;2.55;;;1.17;;
53273;SDS011;39163;52.696;6.758;2024-02-16T03:32:00;5.90;;;1.23;;
53273;SDS011;39163;52.696;6.758;2024-02-16T03:34:27;6.18;;;1.63;;
53273;SDS011;39163;52.696;6.758;2024-02-16T03:36:54;4.50;;;1.58;;
53273;SDS011;39163;52.696;6.758;2024-02-16T03:39:20;5.70;;;1.63;;
53273;SDS011;39163;52.696;6.758;2024-02-16T03:41:47;4.93;;;1.48;;
53273;SDS011;39163;52.696;6.758;2024-02-16T03:44:14;4.97;;;1.13;;
53273;SDS011;39163;52.696;6.758;2024-02-16T03:46:42;7.20;;;1.40;;
53273;SDS011;39163;52.696;6.758;2024-02-16T03:49:10;3.72;;;1.42;;
53273;SDS011;39163;52.696;6.758;2024-02-16T03:51:36;5.03;;;1.90;;
53273;SDS011;39163;52.696;6.758;2024-02-16T03:54:03;7.13;;;1.88;;
53273;SDS011;39163;52.696;6.758;2024-02-16T03:56:30;3.92;;;1.10;;
53273;SDS011;39163;52.696;6.758;2024-02-16T03:58:57;8.65;;;1.30;;
53273;SDS011;39163;52.696;6.758;2024-02-16T04:01:24;3.40;;;1.27;;
53273;SDS011;39163;52.696;6.758;2024-02-16T04:03:51;5.15;;;1.38;;
53273;SDS011;39163;52.696;6.758;2024-02-16T04:06:19;4.72;;;1.92;;
53273;SDS011;39163;52.696;6.758;2024-02-16T04:08:46;6.70;;;1.48;;
53273;SDS011;39163;52.696;6.758;2024-02-16T04:11:14;6.28;;;1.88;;
53273;SDS011;39163;52.696;6.758;2024-02-16T04:13:42;5.43;;;1.30;;
53273;SDS011;39163;52.696;6.758;2024-02-16T04:16:09;5.57;;;1.90;;
53273;SDS011;39163;52.696;6.758;2024-02-16T04:18:36;2.83;;;1.40;;
53273;SDS011;39163;52.696;6.758;2024-02-16T04:21:03;6.90;;;1.88;;
53273;SDS011;39163;52.696;6.758;2024-02-16T04:23:32;7.00;;;1.85;;
53273;SDS011;39163;52.696;6.758;2024-02-16T04:25:59;5.10;;;1.45;;
53273;SDS011;39163;52.696;6.758;2024-02-16T04:28:25;3.65;;;1.67;;
53273;SDS011;39163;52.696;6.758;2024-02-16T04:30:52;6.05;;;1.55;;
53273;SDS011;39163;52.696;6.758;2024-02-16T04:33:19;4.32;;;1.70;;
53273;SDS011;39163;52.696;6.758;2024-02-16T04:35:46;6.53;;;1.90;;
53273;SDS011;39163;52.696;6.758;2024-02-16T04:38:15;6.38;;;1.80;;
53273;SDS011;39163;52.696;6.758;2024-02-16T04:40:44;5.63;;;1.38;;
53273;SDS011;39163;52.696;6.758;2024-02-16T04:43:11;6.60;;;1.90;;
53273;SDS011;39163;52.696;6.758;2024-02-16T04:45:38;10.23;;;2.08;;
53273;SDS011;39163;52.696;6.758;2024-02-16T04:48:05;5.35;;;1.63;;
53273;SDS011;39163;52.696;6.758;2024-02-16T04:50:34;7.28;;;2.00;;
53273;SDS011;39163;52.696;6.758;2024-02-16T04:53:01;4.10;;;1.60;;
53273;SDS011;39163;52.696;6.758;2024-02-16T04:55:28;6.15;;;1.40;;
53273;SDS011;39163;52.696;6.758;2024-02-16T04:57:57;4.70;;;1.60;;
53273;SDS011;39163;52.696;6.758;2024-02-16T05:00:24;5.95;;;2.22;;
53273;SDS011;39163;52.696;6.758;2024-02-16T05:02:52;5.15;;;1.85;;
53273;SDS011;39163;52.696;6.758;2024-02-16T05:05:19;6.93;;;1.60;;
53273;SDS011;39163;52.696;6.758;2024-02-16T05:07:47;3.80;;;1.88;;
53273;SDS011;39163;52.696;6.758;2024-02-16T05:10:15;7.60;;;2.40;;
53273;SDS011;39163;52.696;6.758;2024-02-16T05:12:42;5.00;;;1.77;;
53273;SDS011;39163;52.696;6.758;2024-02-16T05:15:11;5.90;;;2.78;;
53273;SDS011;39163;52.696;6.758;2024-02-16T05:17:39;6.53;;;1.70;;
53273;SDS011;39163;52.696;6.758;2024-02-16T05:20:10;6.70;;;1.83;;
53273;SDS011;39163;52.696;6.758;2024-02-16T05:25:08;6.63;;;2.15;;
53273;SDS011;39163;52.696;6.758;2024-02-16T05:27:36;4.18;;;1.70;;
53273;SDS011;39163;52.696;6.758;2024-02-16T05:30:03;4.93;;;1.90;;
53273;SDS011;39163;52.696;6.758;2024-02-16T05:32:35;5.40;;;2.05;;
53273;SDS011;39163;52.696;6.758;2024-02-16T05:35:02;9.48;;;2.30;;
53273;SDS011;39163;52.696;6.758;2024-02-16T05:37:36;5.25;;;2.03;;
53273;SDS011;39163;52.696;6.758;2024-02-16T05:40:07;5.43;;;1.88;;
53273;SDS011;39163;52.696;6.758;2024-02-16T05:42:46;6.90;;;1.98;;
53273;SDS011;39163;52.696;6.758;2024-02-16T05:45:13;5.38;;;1.52;;
53273;SDS011;39163;52.696;6.758;2024-02-16T05:47:42;5.28;;;1.50;;
53273;SDS011;39163;52.696;6.758;2024-02-16T05:50:11;3.88;;;1.45;;
53273;SDS011;39163;52.696;6.758;2024-02-16T05:52:39;8.10;;;2.22;;
53273;SDS011;39163;52.696;6.758;2024-02-16T05:55:06;9.35;;;3.42;;
53273;SDS011;39163;52.696;6.758;2024-02-16T05:57:34;6.70;;;2.03;;
53273;SDS011;39163;52.696;6.758;2024-02-16T06:00:02;5.72;;;1.73;;
53273;SDS011;39163;52.696;6.758;2024-02-16T06:02:30;3.97;;;1.67;;
53273;SDS011;39163;52.696;6.758;2024-02-16T06:04:58;4.55;;;2.03;;
53273;SDS011;39163;52.696;6.758;2024-02-16T06:07:25;6.20;;;2.00;;
53273;SDS011;39163;52.696;6.758;2024-02-16T06:09:53;5.90;;;1.83;;
53273;SDS011;39163;52.696;6.758;2024-02-16T06:12:21;4.22;;;1.92;;
53273;SDS011;39163;52.696;6.758;2024-02-16T06:14:49;4.25;;;1.85;;
53273;SDS011;39163;52.696;6.758;2024-02-16T06:17:17;4.18;;;1.98;;
53273;SDS011;39163;52.696;6.758;2024-02-16T06:19:44;6.65;;;2.47;;
53273;SDS011;39163;52.696;6.758;2024-02-16T06:22:13;8.75;;;2.25;;
53273;SDS011;39163;52.696;6.758;2024-02-16T06:24:40;4.03;;;1.85;;
53273;SDS011;39163;52.696;6.758;2024-02-16T06:27:06;4.93;;;1.80;;
53273;SDS011;39163;52.696;6.758;2024-02-16T06:29:34;3.85;;;1.30;;
53273;SDS011;39163;52.696;6.758;2024-02-16T06:32:01;12.30;;;2.88;;
53273;SDS011;39163;52.696;6.758;2024-02-16T06:34:29;7.10;;;1.63;;
53273;SDS011;39163;52.696;6.758;2024-02-16T06:36:56;4.15;;;1.73;;
53273;SDS011;39163;52.696;6.758;2024-02-16T06:39:24;3.90;;;1.65;;
53273;SDS011;39163;52.696;6.758;2024-02-16T06:41:51;7.30;;;1.95;;
53273;SDS011;39163;52.696;6.758;2024-02-16T06:44:18;5.88;;;3.08;;
53273;SDS011;39163;52.696;6.758;2024-02-16T06:46:45;4.75;;;2.95;;
53273;SDS011;39163;52.696;6.758;2024-02-16T06:49:12;8.45;;;2.25;;
53273;SDS011;39163;52.696;6.758;2024-02-16T06:51:39;3.50;;;1.67;;
53273;SDS011;39163;52.696;6.758;2024-02-16T06:54:05;7.90;;;3.22;;
53273;SDS011;39163;52.696;6.758;2024-02-16T06:56:34;8.90;;;3.25;;
53273;SDS011;39163;52.696;6.758;2024-02-16T06:59:02;5.32;;;1.70;;
53273;SDS011;39163;52.696;6.758;2024-02-16T07:01:29;4.72;;;1.73;;
53273;SDS011;39163;52.696;6.758;2024-02-16T07:03:56;6.13;;;1.90;;
53273;SDS011;39163;52.696;6.758;2024-02-16T07:06:23;10.50;;;2.72;;
53273;SDS011;39163;52.696;6.758;2024-02-16T07:08:51;5.78;;;2.65;;
53273;SDS011;39163;52.696;6.758;2024-02-16T07:11:19;8.23;;;3.65;;
53273;SDS011;39163;52.696;6.758;2024-02-16T07:13:48;4.38;;;1.90;;
53273;SDS011;39163;52.696;6.758;2024-02-16T07:16:15;4.00;;;1.95;;
53273;SDS011;39163;52.696;6.758;2024-02-16T07:18:43;4.95;;;1.95;;
53273;SDS011;39163;52.696;6.758;2024-02-16T07:21:10;5.05;;;1.95;;
53273;SDS011;39163;52.696;6.758;2024-02-16T07:23:37;8.60;;;2.03;;
53273;SDS011;39163;52.696;6.758;2024-02-16T07:26:04;7.40;;;1.42;;
53273;SDS011;39163;52.696;6.758;2024-02-16T07:28:32;5.13;;;1.40;;
53273;SDS011;39163;52.696;6.758;2024-02-16T07:31:01;5.65;;;1.67;;
53273;SDS011;39163;52.696;6.758;2024-02-16T07:33:28;3.08;;;1.38;;
53273;SDS011;39163;52.696;6.758;2024-02-16T07:35:55;4.22;;;1.10;;
53273;SDS011;39163;52.696;6.758;2024-02-16T07:38:22;5.55;;;1.70;;
53273;SDS011;39163;52.696;6.758;2024-02-16T07:40:48;3.58;;;1.65;;
53273;SDS011;39163;52.696;6.758;2024-02-16T07:43:16;4.45;;;1.83;;
53273;SDS011;39163;52.696;6.758;2024-02-16T07:45:43;3.60;;;1.63;;
53273;SDS011;39163;52.696;6.758;2024-02-16T07:48:12;4.50;;;1.40;;
53273;SDS011;39163;52.696;6.758;2024-02-16T07:50:39;2.55;;;1.17;;
53273;SDS011;39163;52.696;6.758;2024-02-16T07:53:06;6.00;;;1.80;;
53273;SDS011;39163;52.696;6.758;2024-02-16T07:55:35;4.00;;;1.65;;
53273;SDS011;39163;52.696;6.758;2024-02-16T07:58:01;4.03;;;1.85;;
53273;SDS011;39163;52.696;6.758;2024-02-16T08:00:29;7.15;;;2.88;;
53273;SDS011;39163;52.696;6.758;2024-02-16T08:02:56;3.90;;;1.23;;
53273;SDS011;39163;52.696;6.758;2024-02-16T08:05:24;5.00;;;1.65;;
53273;SDS011;39163;52.696;6.758;2024-02-16T08:07:52;4.43;;;1.48;;
53273;SDS011;39163;52.696;6.758;2024-02-16T08:10:19;5.40;;;2.35;;
53273;SDS011;39163;52.696;6.758;2024-02-16T08:12:47;5.53;;;1.50;;
53273;SDS011;39163;52.696;6.758;2024-02-16T08:15:14;6.68;;;1.35;;
53273;SDS011;39163;52.696;6.758;2024-02-16T08:17:47;4.25;;;1.95;;
53273;SDS011;39163;52.696;6.758;2024-02-16T08:20:14;7.10;;;2.70;;
53273;SDS011;39163;52.696;6.758;2024-02-16T08:22:43;4.25;;;1.73;;
53273;SDS011;39163;52.696;6.758;2024-02-16T08:25:10;2.90;;;1.52;;
53273;SDS011;39163;52.696;6.758;2024-02-16T08:27:37;4.30;;;1.67;;
53273;SDS011;39163;52.696;6.758;2024-02-16T08:30:04;4.45;;;1.48;;
53273;SDS011;39163;52.696;6.758;2024-02-16T08:32:34;4.45;;;1.45;;
53273;SDS011;39163;52.696;6.758;2024-02-16T08:35:01;6.07;;;1.60;;
53273;SDS011;39163;52.696;6.758;2024-02-16T08:37:28;3.92;;;1.55;;
53273;SDS011;39163;52.696;6.758;2024-02-16T08:39:56;4.18;;;1.35;;
53273;SDS011;39163;52.696;6.758;2024-02-16T08:42:23;5.72;;;1.70;;
53273;SDS011;39163;52.696;6.758;2024-02-16T08:44:50;5.10;;;2.33;;
53273;SDS011;39163;52.696;6.758;2024-02-16T08:47:17;5.53;;;1.33;;
53273;SDS011;39163;52.696;6.758;2024-02-16T08:49:44;4.95;;;1.65;;
53273;SDS011;39163;52.696;6.758;2024-02-16T08:52:11;5.32;;;1.90;;
53273;SDS011;39163;52.696;6.758;2024-02-16T08:54:38;4.45;;;1.60;;
53273;SDS011;39163;52.696;6.758;2024-02-16T08:57:06;4.97;;;1.95;;
53273;SDS011;39163;52.696;6.758;2024-02-16T08:59:35;6.60;;;2.05;;
53273;SDS011;39163;52.696;6.758;2024-02-16T09:02:02;7.53;;;3.97;;
53273;SDS011;39163;52.696;6.758;2024-02-16T09:04:29;6.50;;;3.25;;
53273;SDS011;39163;52.696;6.758;2024-02-16T09:06:55;4.85;;;2.10;;
53273;SDS011;39163;52.696;6.758;2024-02-16T09:09:22;5.60;;;2.45;;
53273;SDS011;39163;52.696;6.758;2024-02-16T09:11:51;6.47;;;2.03;;
53273;SDS011;39163;52.696;6.758;2024-02-16T09:14:19;10.75;;;4.43;;
53273;SDS011;39163;52.696;6.758;2024-02-16T09:16:48;7.63;;;2.78;;
53273;SDS011;39163;52.696;6.758;2024-02-16T09:19:16;5.65;;;2.47;;
53273;SDS011;39163;52.696;6.758;2024-02-16T09:21:43;6.50;;;1.83;;
53273;SDS011;39163;52.696;6.758;2024-02-16T09:24:10;4.25;;;2.47;;
53273;SDS011;39163;52.696;6.758;2024-02-16T09:26:42;7.72;;;2.67;;
53273;SDS011;39163;52.696;6.758;2024-02-16T09:29:11;9.48;;;2.83;;
53273;SDS011;39163;52.696;6.758;2024-02-16T09:31:40;8.10;;;2.58;;
53273;SDS011;39163;52.696;6.758;2024-02-16T09:34:07;7.32;;;2.53;;
53273;SDS011;39163;52.696;6.758;2024-02-16T09:36:34;13.98;;;2.75;;
53273;SDS011;39163;52.696;6.758;2024-02-16T09:39:02;4.68;;;2.60;;
53273;SDS011;39163;52.696;6.758;2024-02-16T09:41:32;5.13;;;2.80;;
53273;SDS011;39163;52.696;6.758;2024-02-16T09:44:02;4.70;;;2.47;;
53273;SDS011;39163;52.696;6.758;2024-02-16T09:46:29;10.48;;;4.60;;
53273;SDS011;39163;52.696;6.758;2024-02-16T09:49:00;5.70;;;2.58;;
53273;SDS011;39163;52.696;6.758;2024-02-16T09:51:28;8.73;;;1.60;;
53273;SDS011;39163;52.696;6.758;2024-02-16T09:53:55;4.63;;;1.80;;
53273;SDS011;39163;52.696;6.758;2024-02-16T09:56:22;5.10;;;2.47;;
53273;SDS011;39163;52.696;6.758;2024-02-16T09:58:49;6.32;;;2.58;;
53273;SDS011;39163;52.696;6.758;2024-02-16T10:01:17;10.32;;;2.50;;
53273;SDS011;39163;52.696;6.758;2024-02-16T10:03:46;4.90;;;2.20;;
53273;SDS011;39163;52.696;6.758;2024-02-16T10:06:15;5.80;;;1.90;;
53273;SDS011;39163;52.696;6.758;2024-02-16T10:08:49;4.85;;;2.22;;
53273;SDS011;39163;52.696;6.758;2024-02-16T10:11:16;6.05;;;2.58;;
53273;SDS011;39163;52.696;6.758;2024-02-16T10:13:55;7.50;;;2.58;;
53273;SDS011;39163;52.696;6.758;2024-02-16T10:16:23;4.63;;;2.17;;
53273;SDS011;39163;52.696;6.758;2024-02-16T10:18:54;3.78;;;2.28;;
53273;SDS011;39163;52.696;6.758;2024-02-16T10:21:26;6.10;;;2.30;;
53273;SDS011;39163;52.696;6.758;2024-02-16T10:23:59;7.78;;;2.25;;
53273;SDS011;39163;52.696;6.758;2024-02-16T10:28:54;13.20;;;2.83;;
53273;SDS011;39163;52.696;6.758;2024-02-16T10:31:23;8.25;;;2.60;;
53273;SDS011;39163;52.696;6.758;2024-02-16T10:33:56;6.15;;;2.40;;
53273;SDS011;39163;52.696;6.758;2024-02-16T10:36:26;5.43;;;2.47;;
53273;SDS011;39163;52.696;6.758;2024-02-16T10:38:54;4.90;;;2.75;;
53273;SDS011;39163;52.696;6.758;2024-02-16T10:41:22;12.60;;;2.90;;
53273;SDS011;39163;52.696;6.758;2024-02-16T10:43:54;7.30;;;2.20;;
53273;SDS011;39163;52.696;6.758;2024-02-16T10:46:22;7.78;;;2.45;;
53273;SDS011;39163;52.696;6.758;2024-02-16T10:48:49;6.82;;;2.63;;
53273;SDS011;39163;52.696;6.758;2024-02-16T10:51:17;7.88;;;3.08;;
53273;SDS011;39163;52.696;6.758;2024-02-16T10:53:51;7.07;;;2.60;;
53273;SDS011;39163;52.696;6.758;2024-02-16T10:56:26;5.45;;;3.00;;
53273;SDS011;39163;52.696;6.758;2024-02-16T10:58:59;7.70;;;3.00;;
53273;SDS011;39163;52.696;6.758;2024-02-16T11:01:27;3.88;;;2.90;;
53273;SDS011;39163;52.696;6.758;2024-02-16T11:04:00;7.55;;;2.90;;
53273;SDS011;39163;52.696;6.758;2024-02-16T11:06:28;4.68;;;2.58;;
53273;SDS011;39163;52.696;6.758;2024-02-16T11:09:02;5.28;;;3.30;;
53273;SDS011;39163;52.696;6.758;2024-02-16T11:11:35;8.35;;;3.50;;
53273;SDS011;39163;52.696;6.758;2024-02-16T11:14:03;5.30;;;3.17;;
53273;SDS011;39163;52.696;6.758;2024-02-16T11:16:43;8.82;;;3.80;;
53273;SDS011;39163;52.696;6.758;2024-02-16T11:19:11;7.47;;;3.60;;
53273;SDS011;39163;52.696;6.758;2024-02-16T11:21:54;6.82;;;3.95;;
53273;SDS011;39163;52.696;6.758;2024-02-16T11:24:29;5.38;;;3.28;;
53273;SDS011;39163;52.696;6.758;2024-02-16T11:26:56;6.75;;;2.65;;
53273;SDS011;39163;52.696;6.758;2024-02-16T11:29:23;8.30;;;3.03;;
53273;SDS011;39163;52.696;6.758;2024-02-16T11:31:52;8.48;;;4.60;;
53273;SDS011;39163;52.696;6.758;2024-02-16T11:34:23;10.57;;;3.88;;
53273;SDS011;39163;52.696;6.758;2024-02-16T11:36:51;9.73;;;4.53;;
53273;SDS011;39163;52.696;6.758;2024-02-16T11:39:19;9.40;;;4.10;;
53273;SDS011;39163;52.696;6.758;2024-02-16T11:41:48;9.50;;;4.35;;
53273;SDS011;39163;52.696;6.758;2024-02-16T11:44:26;10.13;;;4.90;;
53273;SDS011;39163;52.696;6.758;2024-02-16T11:46:54;7.68;;;4.78;;
53273;SDS011;39163;52.696;6.758;2024-02-16T11:49:20;8.43;;;4.95;;
53273;SDS011;39163;52.696;6.758;2024-02-16T11:51:47;8.68;;;5.15;;
53273;SDS011;39163;52.696;6.758;2024-02-16T11:54:14;9.43;;;5.20;;
53273;SDS011;39163;52.696;6.758;2024-02-16T11:56:42;9.60;;;5.57;;
53273;SDS011;39163;52.696;6.758;2024-02-16T11:59:13;11.15;;;7.93;;
53273;SDS011;39163;52.696;6.758;2024-02-16T12:01:50;9.75;;;7.07;;
53273;SDS011;39163;52.696;6.758;2024-02-16T12:04:24;9.85;;;8.07;;
53273;SDS011;39163;52.696;6.758;2024-02-16T12:06:52;14.48;;;9.40;;
53273;SDS011;39163;52.696;6.758;2024-02-16T12:09:21;14.48;;;9.65;;
53273;SDS011;39163;52.696;6.758;2024-02-16T12:11:49;14.63;;;8.98;;
53273;SDS011;39163;52.696;6.758;2024-02-16T12:14:18;12.27;;;9.30;;
53273;SDS011;39163;52.696;6.758;2024-02-16T12:16:48;14.02;;;9.65;;
53273;SDS011;39163;52.696;6.758;2024-02-16T12:19:15;17.95;;;10.68;;
53273;SDS011;39163;52.696;6.758;2024-02-16T12:21:42;18.20;;;10.65;;
53273;SDS011;39163;52.696;6.758;2024-02-16T12:24:09;13.25;;;10.30;;
53273;SDS011;39163;52.696;6.758;2024-02-16T12:26:37;14.30;;;9.85;;
53273;SDS011;39163;52.696;6.758;2024-02-16T12:29:04;16.13;;;10.88;;
53273;SDS011;39163;52.696;6.758;2024-02-16T12:31:33;14.95;;;11.27;;
53273;SDS011;39163;52.696;6.758;2024-02-16T12:34:03;15.02;;;11.70;;
53273;SDS011;39163;52.696;6.758;2024-02-16T12:36:31;14.00;;;10.45;;
53273;SDS011;39163;52.696;6.758;2024-02-16T12:38:59;20.73;;;11.52;;
53273;SDS011;39163;52.696;6.758;2024-02-16T12:41:26;14.23;;;9.63;;
53273;SDS011;39163;52.696;6.758;2024-02-16T12:43:54;15.13;;;10.43;;
53273;SDS011;39163;52.696;6.758;2024-02-16T12:46:21;16.38;;;11.50;;
53273;SDS011;39163;52.696;6.758;2024-02-16T12:48:49;17.50;;;10.40;;
53273;SDS011;39163;52.696;6.758;2024-02-16T12:51:16;14.55;;;10.32;;
53273;SDS011;39163;52.696;6.758;2024-02-16T12:53:43;18.65;;;11.10;;
53273;SDS011;39163;52.696;6.758;2024-02-16T12:56:10;17.50;;;10.75;;
53273;SDS011;39163;52.696;6.758;2024-02-16T12:58:37;15.75;;;10.00;;
53273;SDS011;39163;52.696;6.758;2024-02-16T13:01:05;15.32;;;10.18;;
53273;SDS011;39163;52.696;6.758;2024-02-16T13:03:33;16.42;;;9.57;;
53273;SDS011;39163;52.696;6.758;2024-02-16T13:06:01;16.65;;;10.80;;
53273;SDS011;39163;52.696;6.758;2024-02-16T13:08:29;15.85;;;10.80;;
53273;SDS011;39163;52.696;6.758;2024-02-16T13:10:56;16.38;;;10.10;;
53273;SDS011;39163;52.696;6.758;2024-02-16T13:13:24;17.92;;;9.88;;
53273;SDS011;39163;52.696;6.758;2024-02-16T13:15:51;12.00;;;7.32;;
53273;SDS011;39163;52.696;6.758;2024-02-16T13:18:18;15.93;;;8.07;;
53273;SDS011;39163;52.696;6.758;2024-02-16T13:20:46;11.80;;;6.95;;
53273;SDS011;39163;52.696;6.758;2024-02-16T13:23:14;9.60;;;6.25;;
53273;SDS011;39163;52.696;6.758;2024-02-16T13:25:41;8.43;;;5.03;;
53273;SDS011;39163;52.696;6.758;2024-02-16T13:28:08;8.48;;;5.45;;
53273;SDS011;39163;52.696;6.758;2024-02-16T13:30:35;9.63;;;4.70;;
53273;SDS011;39163;52.696;6.758;2024-02-16T13:33:02;7.38;;;4.47;;
53273;SDS011;39163;52.696;6.758;2024-02-16T13:35:29;9.45;;;5.28;;
53273;SDS011;39163;52.696;6.758;2024-02-16T13:37:56;6.82;;;5.55;;
53273;SDS011;39163;52.696;6.758;2024-02-16T13:40:25;6.85;;;3.88;;
53273;SDS011;39163;52.696;6.758;2024-02-16T13:42:52;5.88;;;3.33;;
53273;SDS011;39163;52.696;6.758;2024-02-16T13:45:20;6.72;;;3.65;;
53273;SDS011;39163;52.696;6.758;2024-02-16T13:47:50;6.40;;;3.72;;
53273;SDS011;39163;52.696;6.758;2024-02-16T13:50:17;6.57;;;3.40;;
53273;SDS011;39163;52.696;6.758;2024-02-16T13:52:44;5.22;;;2.85;;
53273;SDS011;39163;52.696;6.758;2024-02-16T13:55:12;5.53;;;2.55;;
53273;SDS011;39163;52.696;6.758;2024-02-16T13:57:40;5.45;;;3.17;;
53273;SDS011;39163;52.696;6.758;2024-02-16T14:00:08;6.68;;;3.15;;
53273;SDS011;39163;52.696;6.758;2024-02-16T14:02:35;6.43;;;3.83;;
53273;SDS011;39163;52.696;6.758;2024-02-16T14:05:02;4.95;;;2.50;;
53273;SDS011;39163;52.696;6.758;2024-02-16T14:07:30;5.65;;;3.05;;
53273;SDS011;39163;52.696;6.758;2024-02-16T14:09:58;5.40;;;2.55;;
53273;SDS011;39163;52.696;6.758;2024-02-16T14:12:25;5.53;;;3.38;;
53273;SDS011;39163;52.696;6.758;2024-02-16T14:14:54;5.35;;;2.88;;
53273;SDS011;39163;52.696;6.758;2024-02-16T14:17:21;5.55;;;2.80;;
53273;SDS011;39163;52.696;6.758;2024-02-16T14:19:48;3.88;;;2.17;;
53273;SDS011;39163;52.696;6.758;2024-02-16T14:22:14;4.28;;;2.45;;
53273;SDS011;39163;52.696;6.758;2024-02-16T14:24:41;3.45;;;1.83;;
53273;SDS011;39163;52.696;6.758;2024-02-16T14:27:08;3.72;;;2.05;;
53273;SDS011;39163;52.696;6.758;2024-02-16T14:29:35;3.25;;;1.88;;
53273;SDS011;39163;52.696;6.758;2024-02-16T14:32:04;3.13;;;1.70;;
53273;SDS011;39163;52.696;6.758;2024-02-16T14:34:31;2.83;;;1.42;;
53273;SDS011;39163;52.696;6.758;2024-02-16T14:36:58;2.92;;;1.73;;
53273;SDS011;39163;52.696;6.758;2024-02-16T14:39:25;5.03;;;1.92;;
53273;SDS011;39163;52.696;6.758;2024-02-16T14:41:52;4.40;;;1.80;;
53273;SDS011;39163;52.696;6.758;2024-02-16T14:44:19;6.45;;;1.83;;
53273;SDS011;39163;52.696;6.758;2024-02-16T14:46:46;3.70;;;1.80;;
53273;SDS011;39163;52.696;6.758;2024-02-16T14:49:15;5.00;;;1.70;;
53273;SDS011;39163;52.696;6.758;2024-02-16T14:51:46;4.70;;;2.00;;
53273;SDS011;39163;52.696;6.758;2024-02-16T14:54:14;3.33;;;1.77;;